Time;durP1;ratioP1;P1;durP2;ratioP2;P2;SDS_P1;SDS_P2;PMS_P1;PMS_P2;Temp;Humidity;BMP_temperature;BMP_pressure;BME280_temperature;BME280_humidity;BME280_pressure;Samples;Min_cycle;Max_cycle;Signal;HPM_P1;HPM_P2
2024/01/15 00:00:17;;;;;;;34.67;15.18;;;-2.60;1.00;;;;;;7365485;19;20018;-69
2024/01/15 00:02:49;;;;;;;32.45;13.75;;;-2.70;1.00;;;;;;7364129;19;20021;-69
2024/01/15 00:05:19;;;;;;;33.55;15.75;;;-2.70;1.00;;;;;;7366557;19;20024;-69
2024/01/15 00:07:52;;;;;;;36.08;15.68;;;-2.70;1.00;;;;;;7363298;19;20017;-69
2024/01/15 00:10:22;;;;;;;33.67;14.13;;;-2.80;1.00;;;;;;7359354;19;20015;-75
2024/01/15 00:12:52;;;;;;;31.33;13.88;;;-2.80;1.00;;;;;;7365797;19;20015;-71
2024/01/15 00:15:22;;;;;;;35.88;13.75;;;-2.80;1.00;;;;;;7362275;19;20028;-72
2024/01/15 00:17:52;;;;;;;34.72;14.57;;;-2.90;1.00;;;;;;7363293;19;20022;-71
2024/01/15 00:20:23;;;;;;;34.42;14.23;;;-2.90;1.00;;;;;;7364245;19;20082;-70
2024/01/15 00:22:55;;;;;;;32.50;13.43;;;-2.80;1.00;;;;;;7370287;19;20059;-71
2024/01/15 00:25:25;;;;;;;28.48;12.52;;;-2.80;1.00;;;;;;7372861;19;20010;-69
2024/01/15 00:27:55;;;;;;;35.03;13.35;;;-2.80;1.00;;;;;;7362464;19;20021;-70
2024/01/15 00:30:26;;;;;;;30.83;12.82;;;-2.70;1.00;;;;;;7363359;19;20663;-69
2024/01/15 00:32:56;;;;;;;31.90;12.00;;;-2.70;1.00;;;;;;7364478;19;20045;-70
2024/01/15 00:35:27;;;;;;;35.53;13.77;;;-2.60;1.00;;;;;;7364099;19;20018;-70
2024/01/15 00:37:59;;;;;;;31.27;14.55;;;-2.60;1.00;;;;;;7361606;19;20006;-69
2024/01/15 00:40:29;;;;;;;29.75;13.05;;;-2.60;1.00;;;;;;7364039;19;20475;-69
2024/01/15 00:43:00;;;;;;;28.83;11.70;;;-2.60;1.00;;;;;;7365463;19;20505;-71
2024/01/15 00:45:29;;;;;;;27.30;11.63;;;-2.60;1.00;;;;;;7363919;19;20827;-69
2024/01/15 00:48:01;;;;;;;30.50;11.77;;;-2.50;1.00;;;;;;7360703;19;20015;-69
2024/01/15 00:50:31;;;;;;;30.13;12.68;;;-2.50;1.00;;;;;;7364307;19;20094;-69
2024/01/15 00:53:04;;;;;;;29.70;11.90;;;-2.40;1.00;;;;;;7365642;19;20024;-69
2024/01/15 00:55:34;;;;;;;33.45;13.48;;;-2.40;1.00;;;;;;7364076;19;20025;-70
2024/01/15 00:58:04;;;;;;;29.95;12.13;;;-2.40;1.00;;;;;;7361081;19;20079;-69
2024/01/15 01:00:34;;;;;;;33.20;12.05;;;-2.30;1.00;;;;;;7362223;19;20006;-69
2024/01/15 01:03:04;;;;;;;26.98;10.85;;;-2.30;1.00;;;;;;7365011;19;20015;-69
2024/01/15 01:05:35;;;;;;;27.92;12.35;;;-2.30;1.00;;;;;;7364795;19;21570;-69
2024/01/15 01:08:08;;;;;;;26.67;10.95;;;-2.20;1.00;;;;;;7361280;19;20014;-70
2024/01/15 01:10:38;;;;;;;27.58;11.43;;;-2.10;1.00;;;;;;7363062;19;20015;-69
2024/01/15 01:13:08;;;;;;;31.65;12.35;;;-2.00;1.00;;;;;;7364064;19;20017;-69
2024/01/15 01:15:38;;;;;;;26.77;10.85;;;-2.00;1.00;;;;;;7363541;19;20085;-70
2024/01/15 01:18:08;;;;;;;25.42;11.68;;;-1.90;1.00;;;;;;7358485;19;20021;-69
2024/01/15 01:20:39;;;;;;;28.65;12.95;;;-1.90;1.00;;;;;;7363647;19;20051;-70
2024/01/15 01:23:11;;;;;;;28.38;12.48;;;-1.80;1.00;;;;;;7363690;19;20018;-69
2024/01/15 01:25:42;;;;;;;29.55;13.90;;;-1.80;1.00;;;;;;7363305;19;20018;-69
2024/01/15 01:28:12;;;;;;;29.30;12.15;;;-1.80;1.00;;;;;;7364778;19;20040;-69
2024/01/15 01:30:42;;;;;;;26.23;11.73;;;-1.60;1.00;;;;;;7369720;19;20011;-69
2024/01/15 01:33:12;;;;;;;26.77;11.20;;;-1.60;1.00;;;;;;7370736;19;20512;-69
2024/01/15 01:35:43;;;;;;;25.73;12.50;;;-1.50;1.00;;;;;;7370606;19;20011;-69
2024/01/15 01:38:16;;;;;;;26.30;12.93;;;-1.50;1.00;;;;;;7365449;19;20022;-69
2024/01/15 01:40:46;;;;;;;29.85;13.13;;;-1.50;1.00;;;;;;7369763;19;20007;-69
2024/01/15 01:43:16;;;;;;;33.05;15.15;;;-1.40;1.00;;;;;;7370565;19;20570;-69
2024/01/15 01:45:46;;;;;;;28.02;11.73;;;-1.40;1.00;;;;;;7369640;19;20036;-69
2024/01/15 01:48:16;;;;;;;25.42;11.48;;;-1.40;1.00;;;;;;7366430;19;20401;-69
2024/01/15 01:50:47;;;;;;;31.05;13.27;;;-1.40;1.00;;;;;;7368684;19;20043;-70
2024/01/15 01:53:20;;;;;;;31.08;14.88;;;-1.40;1.00;;;;;;7369731;19;20633;-69
2024/01/15 01:55:51;;;;;;;25.42;12.48;;;-1.40;1.00;;;;;;7367801;19;20017;-69
2024/01/15 01:58:21;;;;;;;25.42;12.05;;;-1.30;1.00;;;;;;7366153;19;20543;-70
2024/01/15 02:00:52;;;;;;;26.55;13.00;;;-1.30;1.00;;;;;;7369174;19;20025;-70
2024/01/15 02:03:22;;;;;;;28.83;11.80;;;-1.30;1.00;;;;;;7369790;19;20014;-70
2024/01/15 02:05:53;;;;;;;28.83;13.00;;;-1.30;1.00;;;;;;7367046;19;20014;-69
2024/01/15 02:08:26;;;;;;;27.73;12.52;;;-1.20;1.00;;;;;;7366440;19;20039;-69
2024/01/15 02:10:56;;;;;;;24.67;11.43;;;-1.10;1.00;;;;;;7365002;19;20010;-69
2024/01/15 02:13:26;;;;;;;25.67;11.55;;;-1.10;1.00;;;;;;7367595;19;20010;-69
2024/01/15 02:15:56;;;;;;;26.17;11.75;;;-1.10;1.00;;;;;;7368517;19;20010;-69
2024/01/15 02:18:26;;;;;;;21.33;10.77;;;-1.00;1.00;;;;;;7364590;19;20526;-71
2024/01/15 02:20:56;;;;;;;24.45;11.60;;;-1.00;1.00;;;;;;7369177;19;20031;-70
2024/01/15 02:23:29;;;;;;;22.00;11.10;;;-1.00;1.00;;;;;;7368360;19;20014;-70
2024/01/15 02:25:59;;;;;;;24.73;11.40;;;-1.00;1.00;;;;;;7368050;19;20976;-70
2024/01/15 02:28:29;;;;;;;21.85;11.40;;;-1.00;1.00;;;;;;7364540;19;20014;-70
2024/01/15 02:30:59;;;;;;;22.88;10.93;;;-1.00;1.00;;;;;;7366830;19;20044;-70
2024/01/15 02:33:29;;;;;;;24.10;11.15;;;-1.00;1.00;;;;;;7367191;19;20036;-70
2024/01/15 02:35:59;;;;;;;25.08;11.30;;;-1.00;1.00;;;;;;7367541;19;20033;-69
2024/01/15 02:38:32;;;;;;;22.02;10.60;;;-1.00;1.00;;;;;;7362461;19;20007;-71
2024/01/15 02:41:02;;;;;;;21.17;10.23;;;-1.00;1.00;;;;;;7374195;19;20006;-70
2024/01/15 02:43:32;;;;;;;21.50;10.45;;;-1.00;1.00;;;;;;7372845;19;20510;-70
2024/01/15 02:46:02;;;;;;;21.67;10.45;;;-1.00;1.00;;;;;;7365259;19;20014;-68
2024/01/15 02:48:33;;;;;;;22.83;10.73;;;-1.00;1.00;;;;;;7365422;19;20010;-69
2024/01/15 02:51:03;;;;;;;22.98;10.95;;;-1.00;1.00;;;;;;7366383;19;20010;-70
2024/01/15 02:53:36;;;;;;;21.45;10.35;;;-1.10;1.00;;;;;;7365271;19;20637;-70
2024/01/15 02:56:06;;;;;;;21.08;10.60;;;-1.00;1.00;;;;;;7366840;19;20017;-69
2024/01/15 02:58:37;;;;;;;24.70;10.35;;;-1.10;1.00;;;;;;7364935;19;20009;-69
2024/01/15 03:01:06;;;;;;;21.52;10.68;;;-1.10;1.00;;;;;;7366029;19;20002;-70
2024/01/15 03:03:37;;;;;;;20.80;9.75;;;-1.10;1.00;;;;;;7366763;19;20810;-69
2024/01/15 03:06:07;;;;;;;20.70;9.88;;;-1.10;1.00;;;;;;7365331;19;21286;-70
2024/01/15 03:08:40;;;;;;;23.13;10.35;;;-1.10;1.00;;;;;;7364342;19;20050;-69
2024/01/15 03:11:10;;;;;;;21.88;10.15;;;-1.10;1.00;;;;;;7366409;19;20014;-69
2024/01/15 03:13:40;;;;;;;19.50;9.77;;;-1.10;1.00;;;;;;7366038;19;20363;-70
2024/01/15 03:16:10;;;;;;;23.75;10.10;;;-1.10;1.00;;;;;;7365250;19;20021;-69
2024/01/15 03:18:40;;;;;;;20.67;9.95;;;-1.10;1.00;;;;;;7365625;19;20021;-69
2024/01/15 03:21:10;;;;;;;24.42;10.27;;;-1.00;1.00;;;;;;7366359;19;20050;-69
2024/01/15 03:23:43;;;;;;;23.50;11.10;;;-1.00;1.00;;;;;;7369339;19;20027;-69
2024/01/15 03:26:13;;;;;;;19.33;10.23;;;-1.10;1.00;;;;;;7364626;19;20464;-69
2024/01/15 03:28:43;;;;;;;21.13;9.88;;;-1.10;1.00;;;;;;7366185;19;20018;-68
2024/01/15 03:31:13;;;;;;;22.48;10.75;;;-1.10;1.00;;;;;;7366609;19;20468;-69
2024/01/15 03:33:43;;;;;;;22.88;11.02;;;-1.10;1.00;;;;;;7365910;19;20011;-69
2024/01/15 03:36:13;;;;;;;20.23;9.80;;;-1.00;1.00;;;;;;7363497;19;20021;-69
2024/01/15 03:38:46;;;;;;;19.08;10.45;;;-1.00;1.00;;;;;;7365878;19;20416;-69
2024/01/15 03:41:16;;;;;;;19.75;8.95;;;-1.00;1.00;;;;;;7364910;19;20014;-69
2024/01/15 03:43:46;;;;;;;22.38;10.38;;;-1.00;1.00;;;;;;7365407;19;20007;-68
2024/01/15 03:46:16;;;;;;;22.52;10.77;;;-1.00;1.00;;;;;;7362051;19;21559;-69
2024/01/15 03:48:46;;;;;;;21.48;9.85;;;-0.90;1.00;;;;;;7365899;19;20029;-68
2024/01/15 03:51:20;;;;;;;22.83;10.00;;;-0.90;1.00;;;;;;7365442;19;20011;-68
2024/01/15 03:53:53;;;;;;;20.67;9.45;;;-0.80;1.00;;;;;;7364211;19;20011;-70
2024/01/15 03:56:23;;;;;;;23.02;11.07;;;-0.80;1.00;;;;;;7360804;19;20017;-68
2024/01/15 03:58:53;;;;;;;19.50;9.30;;;-0.80;1.00;;;;;;7365533;19;20015;-69
2024/01/15 04:01:23;;;;;;;16.70;9.18;;;-0.70;1.00;;;;;;7362453;19;20014;-69
2024/01/15 04:03:53;;;;;;;17.95;9.38;;;-0.70;1.00;;;;;;7366366;19;20057;-69
2024/01/15 04:06:23;;;;;;;19.88;9.32;;;-0.70;1.00;;;;;;7360785;19;20022;-69
2024/01/15 04:08:56;;;;;;;19.80;9.80;;;-0.70;1.00;;;;;;7362654;19;20010;-68
2024/01/15 04:11:26;;;;;;;19.95;9.93;;;-0.60;1.00;;;;;;7362187;19;20880;-68
2024/01/15 04:13:56;;;;;;;17.05;8.88;;;-0.60;1.00;;;;;;7363495;19;20013;-69
2024/01/15 04:16:26;;;;;;;18.50;9.02;;;-0.60;1.00;;;;;;7360292;19;20017;-69
2024/01/15 04:18:56;;;;;;;17.73;9.18;;;-0.60;1.00;;;;;;7364710;19;20006;-69
2024/01/15 04:21:26;;;;;;;16.23;8.25;;;-0.60;1.00;;;;;;7362636;19;20014;-69
2024/01/15 04:23:59;;;;;;;19.02;8.85;;;-0.50;1.00;;;;;;7364711;19;20014;-70
2024/01/15 04:26:29;;;;;;;16.73;8.60;;;-0.50;1.00;;;;;;7360296;19;20015;-69
2024/01/15 04:28:59;;;;;;;17.27;8.43;;;-0.50;1.00;;;;;;7364272;19;20010;-69
2024/01/15 04:31:29;;;;;;;24.23;8.32;;;-0.40;1.00;;;;;;7361629;19;20046;-69
2024/01/15 04:33:59;;;;;;;16.20;8.25;;;-0.40;1.00;;;;;;7363483;19;20007;-68
2024/01/15 04:36:29;;;;;;;17.02;7.97;;;-0.40;1.00;;;;;;7358892;19;20007;-69
2024/01/15 04:39:02;;;;;;;14.18;7.65;;;-0.40;1.00;;;;;;7363865;19;21265;-69
2024/01/15 04:41:32;;;;;;;13.15;7.57;;;-0.30;1.00;;;;;;7363628;19;20020;-68
2024/01/15 04:44:02;;;;;;;14.40;7.63;;;-0.20;1.00;;;;;;7364078;19;20058;-69
2024/01/15 04:46:32;;;;;;;15.00;7.95;;;-0.20;1.00;;;;;;7359084;19;20517;-69
2024/01/15 04:49:02;;;;;;;14.70;7.70;;;-0.20;1.00;;;;;;7368600;19;20010;-68
2024/01/15 04:51:33;;;;;;;14.90;7.40;;;-0.20;1.00;;;;;;7363524;19;20685;-68
2024/01/15 04:54:06;;;;;;;15.77;8.20;;;-0.20;1.00;;;;;;7362766;19;20475;-69
2024/01/15 04:56:36;;;;;;;14.13;7.40;;;-0.20;1.00;;;;;;7360279;19;20086;-69
2024/01/15 04:59:06;;;;;;;14.68;6.85;;;-0.20;1.00;;;;;;7367791;19;20018;-68
2024/01/15 05:01:36;;;;;;;12.55;7.65;;;-0.20;1.00;;;;;;7364640;19;20796;-69
2024/01/15 05:04:06;;;;;;;12.32;6.80;;;-0.20;1.00;;;;;;7368669;19;20737;-70
2024/01/15 05:06:36;;;;;;;13.85;7.93;;;-0.10;1.00;;;;;;7364916;19;20010;-68
2024/01/15 05:09:09;;;;;;;13.52;7.13;;;-0.10;1.00;;;;;;7369106;19;20025;-70
2024/01/15 05:11:39;;;;;;;15.90;8.35;;;-0.10;1.00;;;;;;7368937;19;20075;-69
2024/01/15 05:14:09;;;;;;;12.93;7.47;;;-0.10;1.00;;;;;;7368670;19;20011;-69
2024/01/15 05:16:41;;;;;;;12.90;7.43;;;-0.10;1.00;;;;;;7365545;19;20079;-70
2024/01/15 05:19:11;;;;;;;12.27;7.03;;;-0.10;1.00;;;;;;7370229;19;20017;-69
2024/01/15 05:21:41;;;;;;;11.52;6.75;;;-0.10;1.00;;;;;;7369270;19;20014;-69
2024/01/15 05:24:14;;;;;;;14.30;7.78;;;-0.10;1.00;;;;;;7367836;19;20027;-69
2024/01/15 05:26:44;;;;;;;12.63;7.18;;;-0.10;1.00;;;;;;7366005;19;20038;-69
2024/01/15 05:29:14;;;;;;;16.35;7.85;;;0.00;1.00;;;;;;7369007;19;20013;-68
2024/01/15 05:31:44;;;;;;;14.07;6.78;;;-0.10;1.00;;;;;;7368928;19;21169;-68
2024/01/15 05:34:14;;;;;;;14.30;7.03;;;-0.10;1.00;;;;;;7368452;19;20022;-68
2024/01/15 05:36:47;;;;;;;13.85;7.28;;;-0.10;1.00;;;;;;7365078;19;21295;-69
2024/01/15 05:39:20;;;;;;;13.43;7.72;;;-0.10;1.00;;;;;;7369239;19;23691;-70
2024/01/15 05:41:53;;;;;;;14.13;8.25;;;-0.10;1.00;;;;;;7368663;19;20011;-69
2024/01/15 05:44:23;;;;;;;15.05;7.85;;;-0.10;1.00;;;;;;7369549;19;20487;-69
2024/01/15 05:46:53;;;;;;;14.35;7.90;;;0.00;1.00;;;;;;7364565;19;20018;-69
2024/01/15 05:49:23;;;;;;;13.68;7.85;;;0.00;1.00;;;;;;7368489;19;20011;-69
2024/01/15 05:51:53;;;;;;;18.48;8.75;;;0.00;1.00;;;;;;7367775;19;20618;-69
2024/01/15 05:54:26;;;;;;;13.70;7.90;;;0.00;1.00;;;;;;7369769;19;20014;-69
2024/01/15 05:56:56;;;;;;;17.92;8.57;;;0.00;1.00;;;;;;7366566;19;20022;-69
2024/01/15 05:59:26;;;;;;;13.75;8.32;;;0.00;1.00;;;;;;7367667;19;20029;-69
2024/01/15 06:01:56;;;;;;;16.70;7.85;;;0.00;1.00;;;;;;7367571;19;20082;-68
2024/01/15 06:04:26;;;;;;;16.20;9.13;;;0.00;1.00;;;;;;7370190;19;20021;-70
2024/01/15 06:06:57;;;;;;;14.98;8.40;;;0.00;1.00;;;;;;7365435;19;20014;-69
2024/01/15 06:09:31;;;;;;;17.83;8.30;;;0.00;1.00;;;;;;7369227;19;20010;-70
2024/01/15 06:12:02;;;;;;;16.45;8.73;;;0.00;1.00;;;;;;7367178;19;20021;-69
2024/01/15 06:14:32;;;;;;;16.73;8.88;;;0.00;1.00;;;;;;7369445;19;20690;-69
2024/01/15 06:17:02;;;;;;;17.23;8.77;;;0.00;1.00;;;;;;7365555;19;20018;-69
2024/01/15 06:19:32;;;;;;;19.45;9.40;;;0.00;1.00;;;;;;7366090;19;20566;-70
2024/01/15 06:22:02;;;;;;;15.93;8.80;;;-0.10;1.00;;;;;;7368737;19;20029;-68
2024/01/15 06:24:35;;;;;;;15.98;8.93;;;0.00;1.00;;;;;;7365867;19;20427;-69
2024/01/15 06:27:06;;;;;;;17.67;8.70;;;0.00;1.00;;;;;;7364347;19;20027;-70
2024/01/15 06:29:36;;;;;;;15.05;8.10;;;0.00;1.00;;;;;;7365358;19;20479;-69
2024/01/15 06:32:07;;;;;;;17.45;8.82;;;0.10;1.00;;;;;;7365166;19;20010;-69
2024/01/15 06:34:37;;;;;;;15.77;8.48;;;0.00;1.00;;;;;;7363032;19;20018;-69
2024/01/15 06:37:07;;;;;;;15.88;8.23;;;0.10;1.00;;;;;;7361753;19;20089;-69
2024/01/15 06:39:39;;;;;;;14.65;8.52;;;0.10;1.00;;;;;;7364988;19;20010;-68
2024/01/15 06:42:09;;;;;;;13.90;7.95;;;0.10;1.00;;;;;;7366300;19;20012;-68
2024/01/15 06:44:39;;;;;;;19.13;8.07;;;0.10;1.00;;;;;;7365608;19;20010;-67
2024/01/15 06:47:09;;;;;;;16.88;8.82;;;0.10;1.00;;;;;;7362552;19;20029;-69
2024/01/15 06:49:39;;;;;;;16.55;8.82;;;0.10;1.00;;;;;;7366072;19;20429;-69
2024/01/15 06:52:09;;;;;;;15.90;8.30;;;0.10;1.00;;;;;;7366465;19;20029;-68
2024/01/15 06:54:42;;;;;;;15.30;8.23;;;0.10;1.00;;;;;;7366244;19;20031;-68
2024/01/15 06:57:12;;;;;;;15.85;8.25;;;0.10;1.00;;;;;;7360435;19;20827;-68
2024/01/15 06:59:43;;;;;;;15.98;8.27;;;0.10;1.00;;;;;;7364416;19;20098;-68
2024/01/15 07:02:12;;;;;;;16.92;8.30;;;0.20;1.00;;;;;;7365624;19;20675;-68
2024/01/15 07:04:42;;;;;;;15.40;8.18;;;0.10;1.00;;;;;;7366427;19;20011;-70
2024/01/15 07:07:12;;;;;;;13.48;8.13;;;0.20;1.00;;;;;;7361431;19;20021;-68
2024/01/15 07:09:45;;;;;;;15.30;8.40;;;0.20;1.00;;;;;;7365777;19;20006;-68
2024/01/15 07:12:16;;;;;;;13.05;7.80;;;0.10;1.00;;;;;;7365675;19;20029;-70
2024/01/15 07:14:46;;;;;;;15.57;8.18;;;0.10;1.00;;;;;;7368766;19;20027;-69
2024/01/15 07:17:16;;;;;;;16.83;8.00;;;0.10;1.00;;;;;;7369834;19;20014;-69
2024/01/15 07:19:46;;;;;;;15.93;8.07;;;0.20;1.00;;;;;;7366132;19;20018;-69
2024/01/15 07:22:17;;;;;;;15.55;7.88;;;0.20;1.00;;;;;;7363862;19;20523;-68
2024/01/15 07:24:49;;;;;;;14.85;7.72;;;0.20;1.00;;;;;;7363366;19;20020;-68
2024/01/15 07:27:20;;;;;;;17.50;7.70;;;0.20;1.00;;;;;;7361042;19;20317;-69
2024/01/15 07:29:50;;;;;;;18.38;8.30;;;0.20;1.00;;;;;;7364246;19;20010;-69
2024/01/15 07:32:20;;;;;;;15.63;8.32;;;0.20;1.00;;;;;;7364766;19;20018;-68
2024/01/15 07:34:50;;;;;;;12.43;7.53;;;0.30;1.00;;;;;;7364325;19;20026;-69
2024/01/15 07:37:20;;;;;;;15.07;8.57;;;0.30;1.00;;;;;;7359049;19;20367;-68
2024/01/15 07:39:53;;;;;;;16.17;8.10;;;0.30;1.00;;;;;;7364326;19;20022;-69
2024/01/15 07:42:23;;;;;;;12.68;7.63;;;0.30;1.00;;;;;;7364841;19;20515;-69
2024/01/15 07:44:53;;;;;;;16.50;7.75;;;0.30;1.00;;;;;;7365445;19;20089;-70
2024/01/15 07:47:23;;;;;;;14.10;8.68;;;0.30;1.00;;;;;;7360635;19;20017;-70
2024/01/15 07:49:53;;;;;;;14.98;7.90;;;0.30;1.00;;;;;;7364828;19;20007;-69
2024/01/15 07:52:24;;;;;;;13.20;7.97;;;0.30;1.00;;;;;;7364626;19;20039;-70
2024/01/15 07:54:56;;;;;;;14.05;7.50;;;0.30;1.00;;;;;;7365617;19;20010;-69
2024/01/15 07:57:27;;;;;;;12.13;7.20;;;0.30;1.00;;;;;;7360932;19;20510;-68
2024/01/15 07:59:57;;;;;;;12.25;7.40;;;0.40;1.00;;;;;;7364301;19;20068;-68
2024/01/15 08:02:27;;;;;;;14.27;7.20;;;0.40;1.00;;;;;;7364199;19;20014;-69
2024/01/15 08:04:58;;;;;;;12.40;7.18;;;0.50;1.00;;;;;;7364943;19;20022;-70
2024/01/15 08:07:29;;;;;;;15.02;7.57;;;0.40;1.00;;;;;;7359833;19;20024;-69
2024/01/15 08:10:01;;;;;;;14.52;7.18;;;0.40;1.00;;;;;;7365200;19;20014;-69
2024/01/15 08:12:32;;;;;;;14.52;7.50;;;0.40;1.00;;;;;;7364892;19;20021;-69
2024/01/15 08:15:02;;;;;;;12.63;7.15;;;0.50;1.00;;;;;;7364098;19;20010;-69
2024/01/15 08:17:33;;;;;;;15.88;6.80;;;0.50;1.00;;;;;;7356561;19;20006;-69
2024/01/15 08:20:04;;;;;;;14.70;6.72;;;0.50;1.00;;;;;;7364577;19;20416;-69
2024/01/15 08:22:35;;;;;;;18.33;6.80;;;0.60;1.00;;;;;;7361998;19;20050;-70
2024/01/15 08:25:08;;;;;;;13.95;7.45;;;0.60;1.00;;;;;;7363420;19;20018;-70
2024/01/15 08:27:38;;;;;;;11.55;6.45;;;0.70;1.00;;;;;;7358192;19;20743;-69
2024/01/15 08:30:10;;;;;;;28.13;16.33;;;0.60;1.00;;;;;;7362966;19;20094;-69
2024/01/15 08:32:42;;;;;;;13.75;7.22;;;0.70;1.00;;;;;;7363783;19;20110;-68
2024/01/15 08:35:12;;;;;;;12.32;6.30;;;0.80;1.00;;;;;;7363956;19;20035;-69
2024/01/15 08:37:42;;;;;;;12.93;6.32;;;0.70;1.00;;;;;;7362533;19;20087;-70
2024/01/15 08:40:16;;;;;;;13.05;6.95;;;0.80;1.00;;;;;;7370937;19;20086;-69
2024/01/15 08:42:46;;;;;;;12.65;6.50;;;0.80;1.00;;;;;;7370550;19;20015;-69
2024/01/15 08:45:16;;;;;;;16.88;9.40;;;0.80;1.00;;;;;;7370550;19;20070;-68
2024/01/15 08:47:46;;;;;;;17.35;7.05;;;1.00;1.00;;;;;;7364492;19;20085;-69
2024/01/15 08:50:16;;;;;;;13.25;6.60;;;0.90;1.00;;;;;;7369841;19;20726;-69
2024/01/15 08:52:46;;;;;;;12.63;6.38;;;0.90;1.00;;;;;;7370435;19;20006;-69
2024/01/15 08:55:19;;;;;;;9.93;5.78;;;1.00;1.00;;;;;;7369187;19;20542;-70
2024/01/15 08:57:49;;;;;;;11.52;5.72;;;0.90;1.00;;;;;;7363443;19;20003;-68
2024/01/15 09:00:20;;;;;;;12.27;6.22;;;0.90;1.00;;;;;;7369210;19;20018;-70
2024/01/15 09:02:50;;;;;;;9.73;5.53;;;0.90;1.00;;;;;;7370380;19;20009;-69
2024/01/15 09:05:20;;;;;;;11.68;6.10;;;1.00;1.00;;;;;;7369393;19;20026;-70
2024/01/15 09:07:51;;;;;;;11.05;5.47;;;1.00;1.00;;;;;;7364689;19;20485;-70
2024/01/15 09:10:24;;;;;;;11.10;5.70;;;1.00;1.00;;;;;;7368997;19;20032;-69
2024/01/15 09:12:54;;;;;;;12.38;5.68;;;1.10;1.00;;;;;;7369570;19;20090;-68
2024/01/15 09:15:25;;;;;;;11.00;6.43;;;1.10;1.00;;;;;;7370368;19;20011;-70
2024/01/15 09:17:55;;;;;;;15.75;5.85;;;1.10;1.00;;;;;;7364840;19;20010;-69
2024/01/15 09:20:25;;;;;;;9.65;5.47;;;1.20;1.00;;;;;;7370644;19;20024;-68
2024/01/15 09:22:55;;;;;;;9.00;5.30;;;1.20;1.00;;;;;;7369874;19;20010;-69
2024/01/15 09:25:28;;;;;;;8.25;5.05;;;1.20;1.00;;;;;;7368737;19;20017;-69
2024/01/15 09:27:58;;;;;;;11.70;4.82;;;1.30;1.00;;;;;;7364509;19;20661;-69
2024/01/15 09:30:28;;;;;;;9.95;4.90;;;1.30;1.00;;;;;;7368865;19;20033;-68
2024/01/15 09:32:58;;;;;;;12.98;6.22;;;1.30;1.00;;;;;;7372914;19;20010;-69
2024/01/15 09:35:29;;;;;;;12.20;5.53;;;1.30;1.00;;;;;;7372106;19;20081;-70
2024/01/15 09:37:59;;;;;;;12.75;5.47;;;1.30;1.00;;;;;;7364126;19;20045;-70
2024/01/15 09:40:34;;;;;;;11.45;5.07;;;1.40;1.00;;;;;;7367998;19;20010;-69
2024/01/15 09:43:05;;;;;;;9.52;4.90;;;1.40;1.00;;;;;;7366623;19;20036;-70
2024/01/15 09:45:35;;;;;;;10.38;5.00;;;1.40;1.00;;;;;;7370965;19;20010;-68
2024/01/15 09:48:05;;;;;;;11.60;4.70;;;1.40;1.00;;;;;;7364132;19;20106;-69
2024/01/15 09:50:36;;;;;;;10.55;5.15;;;1.50;1.00;;;;;;7369033;19;23280;-69
2024/01/15 09:53:08;;;;;;;11.68;4.93;;;1.50;1.00;;;;;;7366486;19;20012;-71
2024/01/15 09:55:42;;;;;;;9.20;4.95;;;1.50;1.00;;;;;;7362440;19;20014;-69
2024/01/15 09:58:13;;;;;;;9.32;4.95;;;1.50;1.00;;;;;;7363445;19;20085;-70
2024/01/15 10:00:45;;;;;;;8.65;4.97;;;1.50;1.00;;;;;;7368076;19;20026;-69
2024/01/15 10:03:16;;;;;;;9.90;5.13;;;1.60;1.00;;;;;;7368391;19;20013;-69
2024/01/15 10:05:46;;;;;;;12.48;5.38;;;1.60;1.00;;;;;;7368837;19;20013;-70
2024/01/15 10:08:17;;;;;;;13.82;5.45;;;1.60;1.00;;;;;;7363743;19;20101;-70
2024/01/15 10:10:50;;;;;;;7.90;5.10;;;1.60;1.00;;;;;;7368726;19;20480;-69
2024/01/15 10:13:20;;;;;;;8.90;4.53;;;1.60;1.00;;;;;;7367943;19;20022;-70
2024/01/15 10:15:51;;;;;;;9.05;4.70;;;1.50;1.00;;;;;;7369472;19;20034;-70
2024/01/15 10:18:21;;;;;;;6.28;4.07;;;1.60;1.00;;;;;;7363308;19;20015;-69
2024/01/15 10:20:51;;;;;;;8.30;4.50;;;1.60;1.00;;;;;;7367669;19;20704;-70
2024/01/15 10:23:23;;;;;;;10.60;4.38;;;1.50;1.00;;;;;;7368008;19;20011;-70
2024/01/15 10:25:55;;;;;;;9.00;3.92;;;1.60;1.00;;;;;;7367774;19;20018;-69
2024/01/15 10:28:30;;;;;;;10.07;4.57;;;1.60;1.00;;;;;;7363724;19;20007;-69
2024/01/15 10:31:01;;;;;;;13.40;4.90;;;1.60;1.00;;;;;;7367373;19;20103;-69
2024/01/15 10:33:31;;;;;;;10.50;4.30;;;1.60;1.00;;;;;;7368467;19;20081;-69
2024/01/15 10:36:03;;;;;;;13.18;4.80;;;1.50;1.00;;;;;;7369039;19;20031;-70
2024/01/15 10:38:33;;;;;;;13.57;5.10;;;1.50;1.00;;;;;;7362814;19;20031;-70
2024/01/15 10:41:06;;;;;;;9.80;5.15;;;1.60;1.00;;;;;;7367137;19;20021;-69
2024/01/15 10:43:36;;;;;;;6.82;4.30;;;1.60;1.00;;;;;;7368975;19;20014;-69
2024/01/15 10:46:07;;;;;;;12.65;6.00;;;1.50;1.00;;;;;;7364505;19;20018;-69
2024/01/15 10:48:37;;;;;;;10.15;4.82;;;1.50;1.00;;;;;;7361818;19;20014;-72
2024/01/15 10:51:10;;;;;;;11.18;5.45;;;1.50;1.00;;;;;;7368762;19;20014;-70
2024/01/15 10:53:42;;;;;;;14.93;5.10;;;1.50;1.00;;;;;;7365159;19;20010;-68
2024/01/15 10:56:16;;;;;;;15.70;5.93;;;1.50;1.00;;;;;;7361417;19;20068;-71
2024/01/15 10:58:47;;;;;;;17.70;5.38;;;1.50;1.00;;;;;;7365452;19;20026;-68
2024/01/15 11:01:19;;;;;;;12.32;4.60;;;1.50;1.00;;;;;;7364388;19;20014;-69
2024/01/15 11:03:50;;;;;;;12.05;5.13;;;1.40;1.00;;;;;;7365628;19;20068;-69
2024/01/15 11:06:21;;;;;;;9.82;5.63;;;1.30;1.00;;;;;;7363523;19;20022;-69
2024/01/15 11:08:52;;;;;;;10.57;6.70;;;1.30;1.00;;;;;;7366602;19;20021;-70
2024/01/15 11:11:25;;;;;;;8.20;5.22;;;1.00;1.00;;;;;;7366358;19;20034;-69
2024/01/15 11:13:56;;;;;;;12.10;5.68;;;1.00;1.00;;;;;;7368063;19;20006;-69
2024/01/15 11:16:26;;;;;;;10.80;5.90;;;0.90;1.00;;;;;;7362909;19;20074;-69
2024/01/15 11:19:07;;;;;;;11.52;6.07;;;0.70;1.00;;;;;;7366730;19;20021;-68
2024/01/15 11:21:45;;;;;;;12.65;6.45;;;0.60;1.00;;;;;;7366228;19;20021;-69
2024/01/15 11:24:38;;;;;;;11.32;5.88;;;0.70;1.00;;;;;;7365803;19;20017;-69
2024/01/15 11:27:11;;;;;;;12.13;5.57;;;0.70;1.00;;;;;;7363653;19;20020;-69
2024/01/15 11:29:41;;;;;;;9.73;5.65;;;0.60;1.00;;;;;;7366210;19;20010;-69
2024/01/15 11:32:12;;;;;;;10.55;5.82;;;0.70;1.00;;;;;;7366767;19;20022;-70
2024/01/15 11:35:01;;;;;;;14.88;6.65;;;0.80;1.00;;;;;;7367637;19;20014;-68
2024/01/15 11:38:01;;;;;;;14.63;6.53;;;0.80;1.00;;;;;;6852154;19;2004123;-69
2024/01/15 11:40:42;;;;;;;9.45;6.30;;;0.80;1.00;;;;;;6855414;19;2003945;-69
2024/01/15 11:43:20;;;;;;;15.88;6.30;;;0.80;1.00;;;;;;7366464;19;20042;-69
2024/01/15 11:45:54;;;;;;;12.30;6.68;;;0.80;1.00;;;;;;7359269;19;20011;-71
2024/01/15 11:48:27;;;;;;;20.08;7.30;;;0.80;1.00;;;;;;7362309;19;20006;-70
2024/01/15 11:51:02;;;;;;;15.88;7.88;;;0.80;1.00;;;;;;7369758;19;20011;-69
2024/01/15 11:53:42;;;;;;;10.40;6.13;;;0.70;1.00;;;;;;7368573;19;20018;-70
2024/01/15 11:56:17;;;;;;;12.60;6.47;;;0.70;1.00;;;;;;7366117;19;20012;-70
2024/01/15 11:58:51;;;;;;;12.00;6.38;;;0.60;1.00;;;;;;7358983;19;20454;-68
2024/01/15 12:01:21;;;;;;;9.60;6.20;;;0.70;1.00;;;;;;7365129;19;20051;-70
2024/01/15 12:03:51;;;;;;;12.10;6.07;;;0.70;1.00;;;;;;7366336;19;20031;-70
2024/01/15 12:06:23;;;;;;;10.48;6.47;;;0.60;1.00;;;;;;7360735;19;20026;-69
2024/01/15 12:08:53;;;;;;;12.48;6.80;;;0.60;1.00;;;;;;7366429;19;20006;-70
2024/01/15 12:11:26;;;;;;;12.32;6.57;;;0.60;1.00;;;;;;7363877;19;20401;-69
2024/01/15 12:13:59;;;;;;;11.20;6.70;;;0.60;1.00;;;;;;7365283;19;20007;-69
2024/01/15 12:16:29;;;;;;;16.48;7.30;;;0.60;1.00;;;;;;7359129;19;20117;-69
2024/01/15 12:19:00;;;;;;;11.82;7.15;;;0.60;1.00;;;;;;7364290;19;20027;-69
2024/01/15 12:21:30;;;;;;;13.02;7.72;;;0.60;2.70;;;;;;7360649;19;20073;-69
2024/01/15 12:24:01;;;;;;;22.15;11.93;;;0.60;3.40;;;;;;7361910;19;20404;-71
2024/01/15 12:26:31;;;;;;;12.15;6.82;;;0.60;5.80;;;;;;7360594;19;20017;-70
2024/01/15 12:29:04;;;;;;;11.98;6.72;;;0.60;5.90;;;;;;7365360;19;20036;-69
2024/01/15 12:31:34;;;;;;;13.93;6.45;;;0.60;6.40;;;;;;7364160;19;20018;-69
2024/01/15 12:34:04;;;;;;;12.00;6.45;;;0.70;5.60;;;;;;7364779;19;20014;-70
2024/01/15 12:36:34;;;;;;;14.73;6.28;;;0.70;4.10;;;;;;7359917;19;20040;-69
2024/01/15 12:39:05;;;;;;;12.98;6.85;;;0.70;5.10;;;;;;7366528;19;20010;-69
2024/01/15 12:41:36;;;;;;;14.13;6.20;;;0.70;10.10;;;;;;7362486;19;21196;-69
2024/01/15 12:44:09;;;;;;;10.82;5.80;;;0.70;17.10;;;;;;7363790;19;20006;-69
2024/01/15 12:46:39;;;;;;;9.57;5.95;;;0.70;20.90;;;;;;7359204;19;20059;-70
2024/01/15 12:49:10;;;;;;;12.63;5.95;;;0.70;24.40;;;;;;7364146;19;20054;-69
2024/01/15 12:51:41;;;;;;;10.40;5.47;;;0.70;25.80;;;;;;7363388;19;20011;-69
2024/01/15 12:54:12;;;;;;;14.68;5.85;;;0.70;30.00;;;;;;7364001;19;20019;-70
2024/01/15 12:56:42;;;;;;;11.30;5.80;;;0.70;34.60;;;;;;7359040;19;20015;-69
2024/01/15 12:59:14;;;;;;;11.50;5.88;;;0.80;40.20;;;;;;7364150;19;20010;-70
2024/01/15 13:01:45;;;;;;;14.73;6.00;;;0.80;45.00;;;;;;7363303;19;20030;-69
2024/01/15 13:04:24;;;;;;;12.32;5.28;;;0.70;44.20;;;;;;7365652;19;20043;-70
2024/01/15 13:06:55;;;;;;;11.20;4.95;;;0.70;51.20;;;;;;7355307;19;20010;-70
2024/01/15 13:09:26;;;;;;;11.52;4.70;;;0.70;46.70;;;;;;7364781;19;20018;-69